< < Back
Terminal Aerodrome Forecast


Current Version              Previous Versions:   1  2  3  4  5  6  7  8  9  

Terminal Aerodrome Forecast

562
FTUS44 KMOB 160500
TAFPNS
TAF
KPNS 160524Z 1606/1706 05003KT P6SM VCSH SCT020 BKN250
     FM161300 33005KT P6SM VCSH SCT020 SCT040
     FM161700 30006KT P6SM VCTS SCT035CB BKN150
      TEMPO 1618/1622 4SM TSRA BKN020CB=

Latest METAR

100
SAUS70 KWBC 170100 RRA
MTRPNS
METAR KPNS 170053Z AUTO 01004KT 10SM FEW075 SCT110 22/22 A3000 RMK AO2
SLP160 T02220222


USA.gov is the U.S. government's official web portal to all federal, state and local government web resources and services.